createdAt,value
2019-02-21T00:01:37.958Z,4.80
2019-02-21T00:04:07.231Z,4.90
2019-02-21T00:06:36.608Z,4.80
2019-02-21T00:09:07.534Z,4.90
2019-02-21T00:11:36.952Z,5.00
2019-02-21T00:14:06.546Z,4.90
2019-02-21T00:16:35.809Z,4.90
2019-02-21T00:19:05.121Z,5.00
2019-02-21T00:21:34.402Z,5.00
2019-02-21T00:24:03.746Z,4.90
2019-02-21T00:26:33.009Z,4.80
2019-02-21T00:29:02.262Z,4.90
2019-02-21T00:31:31.594Z,4.80
2019-02-21T00:34:00.862Z,4.80
2019-02-21T00:36:30.118Z,4.80
2019-02-21T00:38:59.411Z,4.90
2019-02-21T00:41:28.745Z,4.90
2019-02-21T00:43:58.019Z,4.90
2019-02-21T00:46:27.435Z,4.90
2019-02-21T00:48:56.628Z,4.90
2019-02-21T00:51:25.991Z,4.80
2019-02-21T00:53:55.166Z,4.80
2019-02-21T00:56:24.428Z,4.80
2019-02-21T00:58:53.720Z,4.80
2019-02-21T01:01:23.066Z,4.80
2019-02-21T01:03:52.266Z,4.80
2019-02-21T01:06:21.528Z,4.80
2019-02-21T01:08:50.793Z,4.80
2019-02-21T01:11:20.358Z,4.80
2019-02-21T01:13:49.602Z,4.70
2019-02-21T01:16:18.972Z,4.70
2019-02-21T01:18:48.986Z,4.70
2019-02-21T01:21:18.376Z,4.80
2019-02-21T01:23:47.872Z,4.80
2019-02-21T01:26:17.090Z,4.70
2019-02-21T01:28:46.379Z,4.70
2019-02-21T01:31:15.708Z,4.70
2019-02-21T01:33:44.925Z,4.70
2019-02-21T01:36:14.171Z,4.80
2019-02-21T01:38:43.442Z,4.80
2019-02-21T01:41:12.628Z,4.80
2019-02-21T01:43:41.904Z,4.80
2019-02-21T01:46:11.143Z,4.80
2019-02-21T01:48:40.507Z,4.80
2019-02-21T01:51:09.666Z,4.80
2019-02-21T01:53:39.009Z,4.80
2019-02-21T01:56:08.272Z,4.80
2019-02-21T01:58:37.522Z,4.70
2019-02-21T02:01:08.839Z,4.70
2019-02-21T02:03:37.698Z,4.60
2019-02-21T02:06:07.020Z,4.50
2019-02-21T02:08:36.198Z,4.50
2019-02-21T02:11:05.414Z,4.50
2019-02-21T02:13:34.706Z,4.50
2019-02-21T02:16:04.129Z,4.50
2019-02-21T02:18:33.335Z,4.50
2019-02-21T02:21:02.726Z,4.50
2019-02-21T02:23:32.000Z,4.50
2019-02-21T02:26:01.296Z,4.50
2019-02-21T02:28:30.653Z,4.50
2019-02-21T02:30:59.946Z,4.50
2019-02-21T02:33:29.251Z,4.50
2019-02-21T02:35:58.722Z,4.40
2019-02-21T02:38:28.007Z,4.40
2019-02-21T02:40:57.202Z,4.30
2019-02-21T02:43:26.478Z,4.30
2019-02-21T02:45:55.662Z,4.20
2019-02-21T02:48:24.871Z,4.20
2019-02-21T02:50:54.172Z,4.20
2019-02-21T02:53:23.330Z,4.20
2019-02-21T02:55:52.622Z,4.20
2019-02-21T02:58:22.034Z,4.20
2019-02-21T03:00:51.264Z,4.20
2019-02-21T03:03:20.458Z,4.20
2019-02-21T03:05:49.629Z,4.20
2019-02-21T03:08:18.947Z,4.30
2019-02-21T03:10:48.290Z,4.30
2019-02-21T03:13:17.589Z,4.30
2019-02-21T03:15:46.853Z,4.30
2019-02-21T03:18:16.106Z,4.30
2019-02-21T03:20:45.391Z,4.30
2019-02-21T03:23:15.655Z,4.30
2019-02-21T03:25:44.879Z,4.20
2019-02-21T03:28:14.170Z,4.20
2019-02-21T03:30:43.436Z,4.10
2019-02-21T03:33:12.688Z,3.90
2019-02-21T03:35:41.889Z,3.90
2019-02-21T03:38:11.353Z,3.80
2019-02-21T03:40:40.751Z,3.70
2019-02-21T03:43:09.972Z,3.70
2019-02-21T03:45:39.313Z,3.70
2019-02-21T03:48:08.676Z,3.60
2019-02-21T03:50:37.963Z,3.60
2019-02-21T03:53:07.314Z,3.60
2019-02-21T03:55:36.717Z,3.50
2019-02-21T03:58:05.997Z,3.50
2019-02-21T04:00:35.199Z,3.60
2019-02-21T04:03:04.475Z,3.60
2019-02-21T04:05:33.765Z,3.60
2019-02-21T04:08:02.962Z,3.60
2019-02-21T04:10:32.210Z,3.60
2019-02-21T04:13:01.468Z,3.50
2019-02-21T04:15:30.712Z,3.50
2019-02-21T04:17:59.981Z,3.40
2019-02-21T04:20:29.309Z,3.40
2019-02-21T04:22:58.576Z,3.40
2019-02-21T04:25:27.870Z,3.40
2019-02-21T04:27:57.220Z,3.50
2019-02-21T04:30:26.381Z,3.40
2019-02-21T04:32:55.821Z,3.50
2019-02-21T04:35:25.165Z,3.50
2019-02-21T04:37:54.472Z,3.40
2019-02-21T04:40:24.053Z,3.40
2019-02-21T04:42:53.327Z,3.40
2019-02-21T04:45:22.599Z,3.40
2019-02-21T04:47:51.855Z,3.30
2019-02-21T04:50:21.248Z,3.30
2019-02-21T04:52:50.435Z,3.20
2019-02-21T04:55:19.637Z,3.20
2019-02-21T04:57:49.002Z,3.20
2019-02-21T05:00:18.255Z,3.10
2019-02-21T05:02:47.423Z,3.10
2019-02-21T05:05:16.654Z,3.10
2019-02-21T05:07:45.839Z,3.10
2019-02-21T05:10:15.077Z,3.10
2019-02-21T05:12:44.275Z,3.10
2019-02-21T05:15:14.179Z,3.00
2019-02-21T05:17:43.595Z,3.00
2019-02-21T05:20:12.992Z,2.90
2019-02-21T05:22:42.327Z,2.90
2019-02-21T05:25:11.594Z,2.80
2019-02-21T05:27:47.365Z,2.80
2019-02-21T05:30:19.995Z,2.80
2019-02-21T05:33:06.588Z,2.80
2019-02-21T05:36:12.645Z,2.80
2019-02-21T05:38:58.355Z,2.80
2019-02-21T05:41:43.126Z,2.80
2019-02-21T05:44:33.400Z,2.80
2019-02-21T05:47:17.628Z,2.80
2019-02-21T05:50:08.668Z,2.70
2019-02-21T05:52:57.013Z,2.70
2019-02-21T05:55:32.065Z,2.80
2019-02-21T05:58:12.639Z,2.80
2019-02-21T06:00:56.453Z,2.80
2019-02-21T06:03:43.778Z,2.70
2019-02-21T06:06:44.287Z,2.70
2019-02-21T06:09:19.202Z,2.60
2019-02-21T06:12:07.437Z,2.60
2019-02-21T06:14:58.619Z,2.60
2019-02-21T06:17:46.042Z,2.60
2019-02-21T06:20:40.125Z,2.50
2019-02-21T06:23:31.180Z,2.60
2019-02-21T06:26:11.711Z,2.50
2019-02-21T06:29:10.506Z,2.50
2019-02-21T06:31:39.762Z,2.50
2019-02-21T06:34:09.024Z,2.60
2019-02-21T06:36:38.219Z,2.70
2019-02-21T06:39:08.737Z,2.80
2019-02-21T06:41:37.995Z,2.90
2019-02-21T06:44:07.232Z,3.10
2019-02-21T06:46:36.515Z,3.30
2019-02-21T06:49:05.777Z,3.30
2019-02-21T06:51:35.089Z,3.40
2019-02-21T06:54:04.265Z,3.50
2019-02-21T06:56:33.713Z,3.60
2019-02-21T06:59:03.137Z,3.70
2019-02-21T07:01:32.401Z,3.90
2019-02-21T07:04:01.979Z,4.10
2019-02-21T07:06:32.504Z,4.30
2019-02-21T07:09:06.736Z,4.50
2019-02-21T07:11:36.017Z,4.60
2019-02-21T07:14:05.363Z,4.50
2019-02-21T07:16:37.232Z,4.60
2019-02-21T07:19:05.760Z,4.70
2019-02-21T07:21:36.633Z,4.90
2019-02-21T07:24:06.178Z,5.10
2019-02-21T07:26:35.445Z,5.40
2019-02-21T07:29:04.754Z,5.70
2019-02-21T07:31:34.174Z,6.30
2019-02-21T07:34:03.477Z,6.60
2019-02-21T07:36:32.790Z,7.10
2019-02-21T07:39:16.195Z,7.40
2019-02-21T07:41:32.954Z,7.80
2019-02-21T07:44:11.573Z,8.00
2019-02-21T07:46:33.213Z,8.50
2019-02-21T07:49:02.500Z,8.70
2019-02-21T07:51:32.219Z,8.60
2019-02-21T07:54:01.363Z,8.30
2019-02-21T07:56:41.189Z,8.40
2019-02-21T07:59:01.551Z,8.40
2019-02-21T08:01:30.813Z,8.60
2019-02-21T08:04:00.071Z,8.40
2019-02-21T08:06:29.504Z,8.20
2019-02-21T08:08:58.756Z,8.80
2019-02-21T08:11:27.959Z,9.20
2019-02-21T08:13:57.129Z,9.90
2019-02-21T08:16:26.434Z,10.30
2019-02-21T08:18:57.769Z,10.60
2019-02-21T08:21:27.447Z,11.00
2019-02-21T08:23:59.127Z,10.90
2019-02-21T08:26:27.735Z,11.30
2019-02-21T08:28:57.052Z,11.60
2019-02-21T08:31:26.273Z,12.40
2019-02-21T08:33:59.091Z,12.70
2019-02-21T08:36:28.640Z,12.10
2019-02-21T08:38:57.905Z,12.60
2019-02-21T08:41:27.129Z,13.00
2019-02-21T08:43:57.408Z,13.00
2019-02-21T08:46:26.955Z,13.40
2019-02-21T08:48:56.308Z,13.90
2019-02-21T08:51:25.658Z,14.60
2019-02-21T08:53:54.957Z,14.20
2019-02-21T08:56:24.303Z,14.50
2019-02-21T08:58:53.555Z,15.20
2019-02-21T09:01:22.784Z,15.10
2019-02-21T09:03:52.063Z,15.20
2019-02-21T09:06:21.388Z,15.50
2019-02-21T09:08:50.791Z,15.60
2019-02-21T09:11:20.281Z,15.40
2019-02-21T09:13:49.663Z,15.90
2019-02-21T09:16:18.860Z,16.50
2019-02-21T09:18:48.368Z,15.30
2019-02-21T09:21:17.671Z,15.50
2019-02-21T09:23:46.942Z,16.10
2019-02-21T09:26:16.253Z,15.50
2019-02-21T09:28:49.731Z,15.70
2019-02-21T09:31:19.022Z,16.30
2019-02-21T09:33:48.370Z,16.50
2019-02-21T09:36:17.673Z,16.80
2019-02-21T09:38:47.114Z,17.10
2019-02-21T09:41:16.393Z,17.40
2019-02-21T09:43:45.586Z,17.70
2019-02-21T09:46:14.874Z,15.40
2019-02-21T09:48:44.653Z,14.40
2019-02-21T09:51:15.077Z,13.90
2019-02-21T09:53:44.371Z,14.60
2019-02-21T09:56:13.597Z,14.70
2019-02-21T09:58:42.852Z,14.90
2019-02-21T10:01:12.217Z,15.00
2019-02-21T10:03:43.988Z,15.20
2019-02-21T10:06:12.407Z,15.80
2019-02-21T10:08:41.668Z,15.70
2019-02-21T10:11:11.544Z,16.00
2019-02-21T10:13:40.911Z,15.30
2019-02-21T10:16:10.123Z,15.20
2019-02-21T10:18:39.419Z,14.80
2019-02-21T10:21:08.682Z,15.00
2019-02-21T10:23:37.955Z,15.40
2019-02-21T10:26:07.182Z,14.90
2019-02-21T10:28:36.621Z,16.10
2019-02-21T10:31:05.940Z,17.80
2019-02-21T10:33:46.260Z,17.40
2019-02-21T10:36:06.438Z,18.40
2019-02-21T10:38:35.754Z,19.60
2019-02-21T10:41:05.211Z,20.20
2019-02-21T10:43:34.416Z,20.40
2019-02-21T10:46:03.760Z,20.00
2019-02-21T10:48:33.019Z,18.80
2019-02-21T10:51:02.418Z,18.10
2019-02-21T10:53:31.716Z,16.90
2019-02-21T10:56:00.914Z,16.60
2019-02-21T10:58:30.196Z,16.30
2019-02-21T11:00:59.459Z,15.80
2019-02-21T11:03:28.818Z,15.50
2019-02-21T11:05:58.118Z,15.20
2019-02-21T11:08:27.344Z,15.00
2019-02-21T11:10:56.584Z,15.20
2019-02-21T11:13:25.860Z,15.50
2019-02-21T11:15:55.160Z,15.50
2019-02-21T11:18:24.455Z,15.10
2019-02-21T11:20:53.758Z,14.80
2019-02-21T11:23:23.042Z,14.60
2019-02-21T11:25:52.236Z,14.60
2019-02-21T11:28:21.478Z,14.80
2019-02-21T11:30:50.778Z,14.80
2019-02-21T11:33:20.025Z,14.70
2019-02-21T11:35:49.200Z,14.60
2019-02-21T11:38:18.461Z,14.50
2019-02-21T11:40:47.739Z,14.30
2019-02-21T11:43:17.005Z,14.20
2019-02-21T11:45:53.534Z,14.30
2019-02-21T11:48:17.274Z,14.70
2019-02-21T11:50:46.575Z,15.40
2019-02-21T11:53:15.866Z,15.60
2019-02-21T11:55:45.139Z,15.60
2019-02-21T11:58:14.531Z,14.50
2019-02-21T12:00:43.880Z,14.80
2019-02-21T12:03:13.082Z,14.50
2019-02-21T12:05:42.378Z,14.30
2019-02-21T12:08:13.441Z,14.30
2019-02-21T12:10:42.826Z,14.20
2019-02-21T12:13:12.006Z,14.20
2019-02-21T12:15:41.470Z,14.20
2019-02-21T12:18:10.678Z,13.90
2019-02-21T12:20:39.864Z,14.30
2019-02-21T12:23:09.107Z,15.30
2019-02-21T12:25:38.382Z,16.10
2019-02-21T12:28:07.710Z,16.60
2019-02-21T12:30:36.906Z,16.10
2019-02-21T12:33:06.118Z,16.40
2019-02-21T12:35:35.394Z,16.20
2019-02-21T12:38:05.268Z,16.00
2019-02-21T12:40:34.492Z,15.50
2019-02-21T12:43:03.869Z,15.10
2019-02-21T12:45:33.148Z,14.50
2019-02-21T12:48:02.395Z,14.20
2019-02-21T12:50:31.660Z,14.00
2019-02-21T12:53:00.924Z,13.80
2019-02-21T12:55:31.791Z,13.40
2019-02-21T12:58:01.208Z,13.20
2019-02-21T13:00:30.524Z,13.10
2019-02-21T13:02:59.765Z,13.10
2019-02-21T13:05:40.118Z,13.20
2019-02-21T13:08:00.046Z,13.20
2019-02-21T13:10:29.280Z,13.10
2019-02-21T13:12:58.460Z,13.10
2019-02-21T13:15:27.752Z,13.20
2019-02-21T13:17:57.104Z,13.10
2019-02-21T13:20:26.359Z,13.10
2019-02-21T13:22:55.628Z,13.20
2019-02-21T13:25:24.987Z,13.30
2019-02-21T13:27:56.324Z,13.50
2019-02-21T13:30:25.610Z,13.80
2019-02-21T13:32:54.955Z,13.80
2019-02-21T13:35:24.163Z,13.90
2019-02-21T13:37:53.383Z,13.80
2019-02-21T13:40:22.786Z,13.60
2019-02-21T13:42:52.180Z,13.90
2019-02-21T13:45:21.458Z,13.80
2019-02-21T13:47:52.574Z,13.80
2019-02-21T13:50:23.882Z,14.00
2019-02-21T13:52:53.092Z,14.00
2019-02-21T13:55:22.482Z,13.90
2019-02-21T13:57:52.824Z,13.90
2019-02-21T14:00:22.037Z,13.80
2019-02-21T14:02:51.325Z,13.80
2019-02-21T14:05:20.522Z,13.80
2019-02-21T14:07:49.718Z,13.80
2019-02-21T14:10:18.969Z,13.60
2019-02-21T14:12:48.232Z,13.60
2019-02-21T14:15:19.522Z,13.50
2019-02-21T14:17:48.850Z,13.50
2019-02-21T14:20:18.294Z,13.50
2019-02-21T14:22:47.588Z,13.30
2019-02-21T14:25:16.865Z,13.20
2019-02-21T14:27:46.195Z,13.00
2019-02-21T14:30:17.132Z,13.10
2019-02-21T14:32:46.500Z,13.00
2019-02-21T14:35:16.242Z,12.90
2019-02-21T14:37:45.542Z,12.90
2019-02-21T14:40:14.950Z,13.00
2019-02-21T14:42:44.136Z,12.90
2019-02-21T14:45:14.981Z,12.90
2019-02-21T14:47:44.186Z,13.00
2019-02-21T14:50:13.783Z,12.90
2019-02-21T14:52:43.166Z,13.00
2019-02-21T14:55:13.218Z,13.10
2019-02-21T14:57:42.449Z,13.00
2019-02-21T15:00:17.725Z,12.90
2019-02-21T15:02:47.016Z,12.90
2019-02-21T15:05:16.404Z,12.80
2019-02-21T15:07:45.686Z,12.70
2019-02-21T15:10:15.431Z,12.70
2019-02-21T15:12:44.778Z,12.60
2019-02-21T15:15:15.337Z,12.40
2019-02-21T15:17:44.658Z,12.40
2019-02-21T15:20:14.718Z,12.30
2019-02-21T15:22:43.994Z,12.30
2019-02-21T15:25:13.620Z,12.20
2019-02-21T15:27:42.928Z,12.10
2019-02-21T15:30:14.924Z,12.00
2019-02-21T15:32:45.075Z,11.90
2019-02-21T15:35:14.741Z,11.90
2019-02-21T15:37:44.955Z,11.80
2019-02-21T15:40:14.921Z,11.70
2019-02-21T15:42:44.171Z,11.70
2019-02-21T15:45:23.092Z,11.60
2019-02-21T15:47:47.021Z,11.60
2019-02-21T15:50:19.391Z,11.60
2019-02-21T15:52:47.494Z,11.50
2019-02-21T15:55:16.962Z,11.50
2019-02-21T15:57:46.386Z,11.40
2019-02-21T16:00:17.098Z,11.40
2019-02-21T16:02:46.395Z,11.40
2019-02-21T16:05:15.854Z,11.30
2019-02-21T16:07:45.282Z,11.30
2019-02-21T16:10:17.072Z,11.20
2019-02-21T16:12:46.631Z,11.20
2019-02-21T16:15:16.737Z,11.20
2019-02-21T16:17:46.203Z,11.20
2019-02-21T16:20:15.796Z,11.20
2019-02-21T16:22:45.151Z,11.20
2019-02-21T16:25:16.583Z,11.10
2019-02-21T16:27:45.818Z,11.10
2019-02-21T16:30:15.369Z,11.00
2019-02-21T16:32:44.619Z,11.00
2019-02-21T16:35:14.022Z,11.00
2019-02-21T16:37:43.419Z,11.00
2019-02-21T16:40:13.487Z,11.00
2019-02-21T16:42:42.687Z,10.90
2019-02-21T16:45:12.942Z,10.90
2019-02-21T16:47:42.326Z,10.80
2019-02-21T16:50:12.346Z,10.80
2019-02-21T16:52:41.609Z,10.80
2019-02-21T16:55:13.177Z,10.70
2019-02-21T16:57:42.545Z,10.70
2019-02-21T17:00:13.136Z,10.60
2019-02-21T17:02:42.425Z,10.60
2019-02-21T17:05:11.871Z,10.50
2019-02-21T17:07:41.897Z,10.50
2019-02-21T17:10:11.447Z,10.50
2019-02-21T17:12:40.948Z,10.50
2019-02-21T17:15:11.457Z,10.70
2019-02-21T17:17:40.884Z,10.80
2019-02-21T17:20:12.013Z,10.70
2019-02-21T17:22:41.291Z,10.60
2019-02-21T17:25:11.445Z,10.40
2019-02-21T17:27:40.938Z,10.30
2019-02-21T17:30:11.874Z,10.20
2019-02-21T17:32:41.197Z,10.20
2019-02-21T17:35:10.781Z,10.10
2019-02-21T17:37:40.376Z,10.10
2019-02-21T17:40:11.560Z,10.10
2019-02-21T17:42:40.835Z,10.10
2019-02-21T17:45:10.667Z,10.00
2019-02-21T17:47:40.052Z,10.00
2019-02-21T17:50:11.093Z,10.00
2019-02-21T17:52:40.547Z,10.00
2019-02-21T17:55:09.977Z,10.00
2019-02-21T17:57:39.471Z,10.00
2019-02-21T18:00:12.065Z,9.90
2019-02-21T18:02:41.358Z,10.00
2019-02-21T18:05:11.038Z,10.00
2019-02-21T18:07:40.343Z,10.00
2019-02-21T18:10:11.772Z,10.00
2019-02-21T18:12:41.610Z,9.90
2019-02-21T18:15:11.488Z,9.90
2019-02-21T18:17:40.798Z,9.90
2019-02-21T18:20:11.315Z,9.90
2019-02-21T18:22:40.656Z,9.90
2019-02-21T18:25:13.588Z,9.90
2019-02-21T18:27:42.800Z,9.90
2019-02-21T18:30:13.530Z,9.80
2019-02-21T18:32:42.836Z,9.80
2019-02-21T18:35:12.308Z,9.80
2019-02-21T18:37:47.456Z,9.70
2019-02-21T18:40:17.292Z,9.70
2019-02-21T18:42:45.397Z,9.70
2019-02-21T18:45:15.129Z,9.70
2019-02-21T18:47:44.377Z,9.70
2019-02-21T18:50:13.798Z,9.70
2019-02-21T18:52:43.185Z,9.60
2019-02-21T18:55:12.468Z,9.60
2019-02-21T18:57:41.792Z,9.60
2019-02-21T19:00:12.795Z,9.70
2019-02-21T19:02:42.130Z,9.70
2019-02-21T19:05:11.376Z,9.70
2019-02-21T19:07:40.859Z,9.70
2019-02-21T19:10:11.868Z,9.60
2019-02-21T19:12:41.265Z,9.50
2019-02-21T19:15:11.128Z,9.30
2019-02-21T19:17:40.456Z,9.20
2019-02-21T19:20:10.797Z,9.00
2019-02-21T19:22:40.041Z,8.80
2019-02-21T19:25:10.015Z,8.80
2019-02-21T19:27:39.360Z,8.70
2019-02-21T19:30:13.139Z,8.60
2019-02-21T19:32:42.519Z,8.70
2019-02-21T19:35:11.888Z,8.70
2019-02-21T19:37:41.228Z,8.70
2019-02-21T19:40:10.784Z,8.70
2019-02-21T19:42:40.066Z,8.70
2019-02-21T19:45:09.497Z,8.80
2019-02-21T19:47:38.839Z,8.80
2019-02-21T19:50:08.247Z,8.80
2019-02-21T19:52:37.626Z,8.80
2019-02-21T19:55:08.548Z,8.80
2019-02-21T19:57:37.904Z,8.80
2019-02-21T20:00:09.219Z,8.70
2019-02-21T20:02:38.719Z,8.80
2019-02-21T20:05:08.148Z,8.70
2019-02-21T20:07:38.331Z,8.70
2019-02-21T20:10:07.785Z,8.70
2019-02-21T20:12:37.128Z,8.70
2019-02-21T20:15:07.144Z,8.70
2019-02-21T20:17:36.440Z,8.70
2019-02-21T20:20:06.438Z,8.70
2019-02-21T20:22:35.721Z,8.60
2019-02-21T20:25:05.295Z,8.60
2019-02-21T20:27:34.679Z,8.60
2019-02-21T20:30:04.287Z,8.60
2019-02-21T20:32:33.568Z,8.60
2019-02-21T20:35:02.849Z,8.60
2019-02-21T20:37:32.222Z,8.50
2019-02-21T20:40:01.598Z,8.50
2019-02-21T20:42:31.654Z,8.50
2019-02-21T20:45:01.144Z,8.50
2019-02-21T20:47:30.529Z,8.50
2019-02-21T20:49:59.780Z,8.50
2019-02-21T20:52:29.067Z,8.40
2019-02-21T20:54:58.381Z,8.40
2019-02-21T20:57:27.601Z,8.40
2019-02-21T20:59:56.928Z,8.40
2019-02-21T21:02:26.142Z,8.30
2019-02-21T21:04:55.481Z,8.40
2019-02-21T21:07:25.563Z,8.40
2019-02-21T21:09:54.972Z,8.40
2019-02-21T21:12:24.258Z,8.40
2019-02-21T21:14:53.620Z,8.40
2019-02-21T21:17:22.798Z,8.40
2019-02-21T21:19:52.323Z,8.50
2019-02-21T21:22:21.682Z,8.50
2019-02-21T21:24:51.022Z,8.50
2019-02-21T21:27:20.367Z,8.50
2019-02-21T21:29:51.689Z,8.50
2019-02-21T21:32:21.076Z,8.50
2019-02-21T21:34:50.342Z,8.60
2019-02-21T21:37:19.636Z,8.60
2019-02-21T21:39:49.858Z,8.60
2019-02-21T21:42:19.225Z,8.60
2019-02-21T21:44:48.899Z,8.60
2019-02-21T21:47:18.363Z,8.60
2019-02-21T21:49:49.282Z,8.60
2019-02-21T21:52:18.774Z,8.60
2019-02-21T21:54:48.015Z,8.60
2019-02-21T21:57:17.433Z,8.50
2019-02-21T21:59:46.783Z,8.50
2019-02-21T22:02:16.390Z,8.50
2019-02-21T22:04:45.901Z,8.50
2019-02-21T22:07:15.829Z,8.50
2019-02-21T22:09:45.377Z,8.50
2019-02-21T22:12:16.522Z,8.50
2019-02-21T22:14:45.860Z,8.50
2019-02-21T22:17:15.562Z,8.50
2019-02-21T22:19:45.900Z,8.40
2019-02-21T22:22:15.315Z,8.50
2019-02-21T22:24:44.706Z,8.50
2019-02-21T22:27:14.168Z,8.50
2019-02-21T22:29:43.614Z,8.60
2019-02-21T22:32:13.012Z,8.50
2019-02-21T22:34:42.336Z,8.50
2019-02-21T22:37:11.767Z,8.50
2019-02-21T22:39:41.050Z,8.50
2019-02-21T22:42:10.432Z,8.50
2019-02-21T22:44:39.924Z,8.50
2019-02-21T22:47:09.230Z,8.50
2019-02-21T22:49:38.596Z,8.60
2019-02-21T22:52:08.052Z,8.50
2019-02-21T22:54:37.486Z,8.50
2019-02-21T22:57:06.674Z,8.60
2019-02-21T22:59:35.967Z,8.50
2019-02-21T23:02:05.520Z,8.50
2019-02-21T23:05:14.284Z,8.50
2019-02-21T23:08:04.856Z,8.40
2019-02-21T23:10:34.296Z,8.40
2019-02-21T23:13:03.651Z,8.30
2019-02-21T23:15:32.886Z,8.30
2019-02-21T23:18:02.164Z,8.20
2019-02-21T23:20:31.618Z,8.20
2019-02-21T23:23:00.964Z,8.10
2019-02-21T23:25:30.124Z,8.10
2019-02-21T23:27:59.312Z,8.20
2019-02-21T23:30:28.553Z,8.20
2019-02-21T23:32:57.801Z,8.20
2019-02-21T23:35:26.946Z,8.20
2019-02-21T23:37:56.270Z,8.10
2019-02-21T23:40:25.448Z,8.10
2019-02-21T23:42:54.692Z,8.10
2019-02-21T23:45:23.946Z,8.10
2019-02-21T23:47:53.194Z,8.00
2019-02-21T23:50:22.424Z,8.00
2019-02-21T23:52:51.724Z,8.00
2019-02-21T23:55:20.977Z,8.00
2019-02-21T23:57:50.238Z,8.00
